CDT,Max TemperatureF,Mean TemperatureF,Min TemperatureF,Max Dew PointF,MeanDew PointF,Min DewpointF,Max Humidity, Mean Humidity, Min Humidity, Max Sea Level PressureIn, Mean Sea Level PressureIn, Min Sea Level PressureIn, Max VisibilityMiles, Mean VisibilityMiles, Min VisibilityMiles, Max Wind SpeedMPH, Mean Wind SpeedMPH, Max Gust SpeedMPH,PrecipitationIn, CloudCover, Events, WindDirDegrees
2013-5-1,86,70,53,70,64,50,100,79,48,30.15,29.92,29.81,10,10,7,21,11,26,0.00,3,Rain-Thunderstorm,156
2013-5-2,51,46,41,50,42,37,100,92,76,30.39,30.30,30.15,10,9,2,31,20,40,0.02,7,Rain,352
2013-5-3,62,52,41,39,36,34,87,51,34,30.28,30.13,30.02,10,10,10,23,14,31,0.00,1,,333
2013-5-4,55,48,41,45,38,32,87,68,44,30.08,30.00,29.95,10,10,10,28,9,37,0.00,5,Rain,328
2013-5-5,62,54,46,54,49,45,100,82,67,30.17,30.12,30.08,10,10,4,14,9,17,0.00,7,,346
2013-5-6,77,60,44,57,53,45,100,76,47,30.14,30.09,30.03,10,10,4,14,2,,0.00,0,,18
2013-5-7,62,58,53,59,56,54,100,92,77,30.11,30.08,30.06,10,10,7,8,4,,0.00,1,,139
2013-5-8,,,,,,,,,,,,,,,,,,,,,,
2013-5-9,,,,,,,,,,,,,,,,,,,,,,
2013-5-10,,,,,,,,,,,,,,,,,,,,,,
2013-5-11,,,,,,,,,,,,,,,,,,,,,,
2013-5-12,,,,,,,,,,,,,,,,,,,,,,
2013-5-13,91,84,77,61,57,52,44,39,34,30.13,30.07,30.04,10,10,10,18,12,23,0.00,0,,216
2013-5-14,91,78,64,63,57,50,64,46,29,30.09,30.03,29.94,10,10,10,17,12,25,0.00,0,,207
2013-5-15,77,70,62,72,66,57,100,86,57,29.99,29.92,29.81,10,9,2,17,11,22,0.87,4,Rain,165
2013-5-16,78,70,62,72,66,63,100,92,69,29.89,29.85,29.81,10,9,5,12,6,,0.02,6,Rain,140
2013-5-17,77,70,64,77,71,63,100,98,89,29.92,29.89,29.85,10,4,0,12,6,,0.00,7,Fog,122
2013-5-18,91,80,68,79,75,66,100,86,59,29.90,29.82,29.75,10,6,2,29,12,50,0.44,4,Rain,165
2013-5-19,87,78,68,75,71,66,100,81,62,29.85,29.70,29.60,10,10,4,23,14,38,0.03,2,Rain,168
2013-5-20,86,78,71,77,72,64,100,81,66,29.80,29.72,29.65,10,10,7,18,12,24,0.00,3,Rain,182
2013-5-21,71,65,59,66,61,55,100,91,78,29.98,29.83,29.75,10,9,2,22,7,32,0.69,4,Rain,310
2013-5-22,84,70,55,64,60,55,100,75,48,29.97,29.91,29.84,10,10,10,10,4,,0.00,0,,215
2013-5-23,80,71,62,70,65,63,100,89,65,30.14,30.05,29.94,10,10,7,15,6,24,0.03,2,Rain,78
2013-5-24,86,74,62,73,69,61,100,86,66,30.19,30.15,30.11,10,10,5,15,9,23,0.00,4,,120
2013-5-25,86,77,68,72,69,64,100,82,58,30.19,30.13,30.04,10,10,10,17,12,25,0.00,3,Rain,163
2013-5-26,86,77,68,75,72,68,100,88,62,30.09,30.02,29.93,10,9,5,21,10,26,0.00,4,,166
2013-5-27,82,78,73,75,72,70,100,83,70,29.96,29.86,29.71,10,10,7,26,17,38,0.00,4,,180
2013-5-28,82,80,77,72,71,68,83,76,70,29.83,29.79,29.74,10,10,10,24,17,32,0.00,3,,177
2013-5-29,80,76,73,75,72,68,100,84,74,29.83,29.77,29.64,10,10,5,26,14,38,0.03,5,Rain,162
2013-5-30,87,79,71,77,72,63,100,82,62,29.75,29.71,29.66,10,10,10,26,17,34,0.00,5,,182
2013-5-31,91,80,69,77,75,68,100,81,63,29.81,29.73,29.61,10,10,2,25,15,37,0.42,4,Rain,182